sensor_id;sensor_type;location;lat;lon;timestamp;temperature;humidity
65058;HTU21D;51644;51.068;5.860;2023-08-06T00:00:13;17.10;81.59
65058;HTU21D;51644;51.068;5.860;2023-08-06T00:01:13;17.09;81.59
65058;HTU21D;51644;51.068;5.860;2023-08-06T00:02:12;17.08;81.63
65058;HTU21D;51644;51.068;5.860;2023-08-06T00:03:11;17.09;81.59
65058;HTU21D;51644;51.068;5.860;2023-08-06T00:04:09;17.09;81.59
65058;HTU21D;51644;51.068;5.860;2023-08-06T00:05:08;17.09;81.58
65058;HTU21D;51644;51.068;5.860;2023-08-06T00:06:06;17.09;81.57
65058;HTU21D;51644;51.068;5.860;2023-08-06T00:07:05;17.05;81.70
65058;HTU21D;51644;51.068;5.860;2023-08-06T00:08:04;17.05;81.68
65058;HTU21D;51644;51.068;5.860;2023-08-06T00:09:02;17.07;81.66
65058;HTU21D;51644;51.068;5.860;2023-08-06T00:10:01;17.06;81.59
65058;HTU21D;51644;51.068;5.860;2023-08-06T00:10:59;17.06;81.62
65058;HTU21D;51644;51.068;5.860;2023-08-06T00:11:58;17.08;81.57
65058;HTU21D;51644;51.068;5.860;2023-08-06T00:12:57;17.06;81.59
65058;HTU21D;51644;51.068;5.860;2023-08-06T00:13:55;17.05;81.55
65058;HTU21D;51644;51.068;5.860;2023-08-06T00:14:54;17.06;81.59
65058;HTU21D;51644;51.068;5.860;2023-08-06T00:15:52;17.03;81.66
65058;HTU21D;51644;51.068;5.860;2023-08-06T00:16:51;17.02;81.65
65058;HTU21D;51644;51.068;5.860;2023-08-06T00:17:49;17.03;81.62
65058;HTU21D;51644;51.068;5.860;2023-08-06T00:18:48;17.02;81.59
65058;HTU21D;51644;51.068;5.860;2023-08-06T00:19:47;17.05;81.60
65058;HTU21D;51644;51.068;5.860;2023-08-06T00:20:45;17.04;81.59
65058;HTU21D;51644;51.068;5.860;2023-08-06T00:21:44;17.06;81.43
65058;HTU21D;51644;51.068;5.860;2023-08-06T00:22:42;17.08;81.36
65058;HTU21D;51644;51.068;5.860;2023-08-06T00:23:41;17.08;81.27
65058;HTU21D;51644;51.068;5.860;2023-08-06T00:24:40;17.10;81.12
65058;HTU21D;51644;51.068;5.860;2023-08-06T00:25:38;17.10;81.05
65058;HTU21D;51644;51.068;5.860;2023-08-06T00:26:37;17.10;80.99
65058;HTU21D;51644;51.068;5.860;2023-08-06T00:27:36;17.11;80.92
65058;HTU21D;51644;51.068;5.860;2023-08-06T00:28:35;17.11;80.90
65058;HTU21D;51644;51.068;5.860;2023-08-06T00:29:33;17.11;80.88
65058;HTU21D;51644;51.068;5.860;2023-08-06T00:30:32;17.13;80.84
65058;HTU21D;51644;51.068;5.860;2023-08-06T00:31:31;17.14;80.79
65058;HTU21D;51644;51.068;5.860;2023-08-06T00:32:29;17.15;80.75
65058;HTU21D;51644;51.068;5.860;2023-08-06T00:33:28;17.15;80.74
65058;HTU21D;51644;51.068;5.860;2023-08-06T00:34:26;17.17;80.74
65058;HTU21D;51644;51.068;5.860;2023-08-06T00:35:25;17.17;80.75
65058;HTU21D;51644;51.068;5.860;2023-08-06T00:36:23;17.18;80.75
65058;HTU21D;51644;51.068;5.860;2023-08-06T00:37:22;17.18;80.68
65058;HTU21D;51644;51.068;5.860;2023-08-06T00:38:21;17.17;80.63
65058;HTU21D;51644;51.068;5.860;2023-08-06T00:39:20;17.17;80.63
65058;HTU21D;51644;51.068;5.860;2023-08-06T00:40:20;17.14;80.60
65058;HTU21D;51644;51.068;5.860;2023-08-06T00:41:19;17.16;80.62
65058;HTU21D;51644;51.068;5.860;2023-08-06T00:42:18;17.14;80.69
65058;HTU21D;51644;51.068;5.860;2023-08-06T00:43:19;17.15;80.74
65058;HTU21D;51644;51.068;5.860;2023-08-06T00:44:17;17.15;80.74
65058;HTU21D;51644;51.068;5.860;2023-08-06T00:45:16;17.13;80.76
65058;HTU21D;51644;51.068;5.860;2023-08-06T00:46:15;17.13;80.79
65058;HTU21D;51644;51.068;5.860;2023-08-06T00:47:15;17.10;80.81
65058;HTU21D;51644;51.068;5.860;2023-08-06T00:48:14;17.09;80.88
65058;HTU21D;51644;51.068;5.860;2023-08-06T00:49:13;17.08;80.91
65058;HTU21D;51644;51.068;5.860;2023-08-06T00:50:11;17.05;80.97
65058;HTU21D;51644;51.068;5.860;2023-08-06T00:51:10;17.04;81.01
65058;HTU21D;51644;51.068;5.860;2023-08-06T00:52:10;17.02;81.02
65058;HTU21D;51644;51.068;5.860;2023-08-06T00:53:09;16.99;81.07
65058;HTU21D;51644;51.068;5.860;2023-08-06T00:54:09;17.00;81.13
65058;HTU21D;51644;51.068;5.860;2023-08-06T00:55:08;16.98;81.15
65058;HTU21D;51644;51.068;5.860;2023-08-06T00:56:09;16.96;81.17
65058;HTU21D;51644;51.068;5.860;2023-08-06T00:57:09;16.95;81.17
65058;HTU21D;51644;51.068;5.860;2023-08-06T00:58:12;16.93;81.20
65058;HTU21D;51644;51.068;5.860;2023-08-06T00:59:13;16.92;81.27
65058;HTU21D;51644;51.068;5.860;2023-08-06T01:00:14;16.90;81.36
65058;HTU21D;51644;51.068;5.860;2023-08-06T01:01:13;16.88;81.41
65058;HTU21D;51644;51.068;5.860;2023-08-06T01:02:12;16.86;81.46
65058;HTU21D;51644;51.068;5.860;2023-08-06T01:03:10;16.85;81.47
65058;HTU21D;51644;51.068;5.860;2023-08-06T01:04:10;16.84;81.52
65058;HTU21D;51644;51.068;5.860;2023-08-06T01:05:10;16.81;81.52
65058;HTU21D;51644;51.068;5.860;2023-08-06T01:06:09;16.81;81.55
65058;HTU21D;51644;51.068;5.860;2023-08-06T01:07:13;16.80;81.57
65058;HTU21D;51644;51.068;5.860;2023-08-06T01:09:35;16.80;81.62
65058;HTU21D;51644;51.068;5.860;2023-08-06T01:11:14;16.79;81.59
65058;HTU21D;51644;51.068;5.860;2023-08-06T01:13:50;16.76;81.66
65058;HTU21D;51644;51.068;5.860;2023-08-06T01:16:06;16.74;81.63
65058;HTU21D;51644;51.068;5.860;2023-08-06T01:17:05;16.74;81.65
65058;HTU21D;51644;51.068;5.860;2023-08-06T01:18:04;16.76;81.68
65058;HTU21D;51644;51.068;5.860;2023-08-06T01:19:03;16.75;81.68
65058;HTU21D;51644;51.068;5.860;2023-08-06T01:20:02;16.77;81.66
65058;HTU21D;51644;51.068;5.860;2023-08-06T01:21:02;16.80;81.60
65058;HTU21D;51644;51.068;5.860;2023-08-06T01:22:00;16.80;81.61
65058;HTU21D;51644;51.068;5.860;2023-08-06T01:22:59;16.81;81.52
65058;HTU21D;51644;51.068;5.860;2023-08-06T01:23:58;16.84;81.43
65058;HTU21D;51644;51.068;5.860;2023-08-06T01:24:57;16.82;81.39
65058;HTU21D;51644;51.068;5.860;2023-08-06T01:26:30;16.85;81.30
65058;HTU21D;51644;51.068;5.860;2023-08-06T01:27:50;16.84;81.20
65058;HTU21D;51644;51.068;5.860;2023-08-06T01:28:56;16.86;81.23
65058;HTU21D;51644;51.068;5.860;2023-08-06T01:30:12;16.87;81.17
65058;HTU21D;51644;51.068;5.860;2023-08-06T01:31:30;16.89;81.11
65058;HTU21D;51644;51.068;5.860;2023-08-06T01:32:32;16.91;81.07
65058;HTU21D;51644;51.068;5.860;2023-08-06T01:33:34;16.92;81.12
65058;HTU21D;51644;51.068;5.860;2023-08-06T01:34:35;16.93;81.07
65058;HTU21D;51644;51.068;5.860;2023-08-06T01:35:37;16.95;81.05
65058;HTU21D;51644;51.068;5.860;2023-08-06T01:36:36;16.96;81.07
65058;HTU21D;51644;51.068;5.860;2023-08-06T01:37:37;16.99;81.07
65058;HTU21D;51644;51.068;5.860;2023-08-06T01:38:35;17.01;81.06
65058;HTU21D;51644;51.068;5.860;2023-08-06T01:39:34;17.05;81.04
65058;HTU21D;51644;51.068;5.860;2023-08-06T01:40:35;17.07;80.96
65058;HTU21D;51644;51.068;5.860;2023-08-06T01:41:34;17.10;80.81
65058;HTU21D;51644;51.068;5.860;2023-08-06T01:42:33;17.15;80.72
65058;HTU21D;51644;51.068;5.860;2023-08-06T01:43:32;17.18;80.65
65058;HTU21D;51644;51.068;5.860;2023-08-06T01:44:30;17.20;80.60
65058;HTU21D;51644;51.068;5.860;2023-08-06T01:45:31;17.23;80.52
65058;HTU21D;51644;51.068;5.860;2023-08-06T01:46:29;17.28;80.40
65058;HTU21D;51644;51.068;5.860;2023-08-06T01:47:28;17.31;80.28
65058;HTU21D;51644;51.068;5.860;2023-08-06T01:48:26;17.34;80.14
65058;HTU21D;51644;51.068;5.860;2023-08-06T01:49:29;17.37;79.98
65058;HTU21D;51644;51.068;5.860;2023-08-06T01:50:28;17.38;79.87
65058;HTU21D;51644;51.068;5.860;2023-08-06T01:51:29;17.36;79.92
65058;HTU21D;51644;51.068;5.860;2023-08-06T01:52:28;17.35;80.04
65058;HTU21D;51644;51.068;5.860;2023-08-06T01:53:27;17.34;80.11
65058;HTU21D;51644;51.068;5.860;2023-08-06T01:54:25;17.31;80.17
65058;HTU21D;51644;51.068;5.860;2023-08-06T01:55:24;17.26;80.30
65058;HTU21D;51644;51.068;5.860;2023-08-06T01:56:23;17.20;80.54
65058;HTU21D;51644;51.068;5.860;2023-08-06T01:57:21;17.17;80.75
65058;HTU21D;51644;51.068;5.860;2023-08-06T01:58:20;17.11;80.92
65058;HTU21D;51644;51.068;5.860;2023-08-06T01:59:19;17.08;81.21
65058;HTU21D;51644;51.068;5.860;2023-08-06T02:00:20;17.03;81.45
65058;HTU21D;51644;51.068;5.860;2023-08-06T02:01:19;16.98;81.74
65058;HTU21D;51644;51.068;5.860;2023-08-06T02:02:17;16.95;81.99
65058;HTU21D;51644;51.068;5.860;2023-08-06T02:03:16;16.94;82.21
65058;HTU21D;51644;51.068;5.860;2023-08-06T02:04:15;16.91;82.46
65058;HTU21D;51644;51.068;5.860;2023-08-06T02:05:13;16.88;82.71
65058;HTU21D;51644;51.068;5.860;2023-08-06T02:06:12;16.87;82.84
65058;HTU21D;51644;51.068;5.860;2023-08-06T02:07:11;16.82;83.05
65058;HTU21D;51644;51.068;5.860;2023-08-06T02:08:09;16.81;83.27
65058;HTU21D;51644;51.068;5.860;2023-08-06T02:09:08;16.81;83.44
65058;HTU21D;51644;51.068;5.860;2023-08-06T02:10:08;16.82;83.46
65058;HTU21D;51644;51.068;5.860;2023-08-06T02:11:07;16.79;83.51
65058;HTU21D;51644;51.068;5.860;2023-08-06T02:12:07;16.79;83.64
65058;HTU21D;51644;51.068;5.860;2023-08-06T02:13:06;16.75;83.84
65058;HTU21D;51644;51.068;5.860;2023-08-06T02:14:05;16.74;84.07
65058;HTU21D;51644;51.068;5.860;2023-08-06T02:15:04;16.73;84.19
65058;HTU21D;51644;51.068;5.860;2023-08-06T02:16:03;16.70;84.28
65058;HTU21D;51644;51.068;5.860;2023-08-06T02:17:01;16.67;84.39
65058;HTU21D;51644;51.068;5.860;2023-08-06T02:18:00;16.66;84.53
65058;HTU21D;51644;51.068;5.860;2023-08-06T02:18:59;16.67;84.61
65058;HTU21D;51644;51.068;5.860;2023-08-06T02:19:58;16.66;84.64
65058;HTU21D;51644;51.068;5.860;2023-08-06T02:20:58;16.63;84.72
65058;HTU21D;51644;51.068;5.860;2023-08-06T02:21:57;16.63;84.74
65058;HTU21D;51644;51.068;5.860;2023-08-06T02:22:58;16.62;84.91
65058;HTU21D;51644;51.068;5.860;2023-08-06T02:23:57;16.64;85.06
65058;HTU21D;51644;51.068;5.860;2023-08-06T02:24:56;16.65;85.17
65058;HTU21D;51644;51.068;5.860;2023-08-06T02:26:02;16.66;85.29
65058;HTU21D;51644;51.068;5.860;2023-08-06T02:27:01;16.67;85.33
65058;HTU21D;51644;51.068;5.860;2023-08-06T02:27:59;16.69;85.34
65058;HTU21D;51644;51.068;5.860;2023-08-06T02:29:01;16.67;85.31
65058;HTU21D;51644;51.068;5.860;2023-08-06T02:30:00;16.65;85.37
65058;HTU21D;51644;51.068;5.860;2023-08-06T02:30:58;16.59;85.58
65058;HTU21D;51644;51.068;5.860;2023-08-06T02:31:57;16.58;85.70
65058;HTU21D;51644;51.068;5.860;2023-08-06T02:32:56;16.56;85.84
65058;HTU21D;51644;51.068;5.860;2023-08-06T02:33:54;16.58;85.92
65058;HTU21D;51644;51.068;5.860;2023-08-06T02:34:53;16.60;85.98
65058;HTU21D;51644;51.068;5.860;2023-08-06T02:36:01;16.62;85.96
65058;HTU21D;51644;51.068;5.860;2023-08-06T02:37:02;16.63;85.94
65058;HTU21D;51644;51.068;5.860;2023-08-06T02:38:00;16.64;85.90
65058;HTU21D;51644;51.068;5.860;2023-08-06T02:38:59;16.65;85.90
65058;HTU21D;51644;51.068;5.860;2023-08-06T02:39:57;16.65;85.90
65058;HTU21D;51644;51.068;5.860;2023-08-06T02:40:56;16.66;85.91
65058;HTU21D;51644;51.068;5.860;2023-08-06T02:41:56;16.65;85.96
65058;HTU21D;51644;51.068;5.860;2023-08-06T02:42:54;16.66;85.94
65058;HTU21D;51644;51.068;5.860;2023-08-06T02:43:56;16.66;86.00
65058;HTU21D;51644;51.068;5.860;2023-08-06T02:44:55;16.65;86.06
65058;HTU21D;51644;51.068;5.860;2023-08-06T02:45:57;16.69;86.12
65058;HTU21D;51644;51.068;5.860;2023-08-06T02:46:56;16.72;86.12
65058;HTU21D;51644;51.068;5.860;2023-08-06T02:47:54;16.73;86.01
65058;HTU21D;51644;51.068;5.860;2023-08-06T02:48:53;16.74;85.93
65058;HTU21D;51644;51.068;5.860;2023-08-06T02:49:52;16.75;85.95
65058;HTU21D;51644;51.068;5.860;2023-08-06T02:50:51;16.75;85.98
65058;HTU21D;51644;51.068;5.860;2023-08-06T02:51:49;16.76;85.98
65058;HTU21D;51644;51.068;5.860;2023-08-06T02:52:49;16.78;85.90
65058;HTU21D;51644;51.068;5.860;2023-08-06T02:53:48;16.78;85.90
65058;HTU21D;51644;51.068;5.860;2023-08-06T02:54:49;16.77;85.88
65058;HTU21D;51644;51.068;5.860;2023-08-06T02:55:48;16.76;85.90
65058;HTU21D;51644;51.068;5.860;2023-08-06T02:56:49;16.77;85.98
65058;HTU21D;51644;51.068;5.860;2023-08-06T02:57:55;16.76;86.00
65058;HTU21D;51644;51.068;5.860;2023-08-06T02:58:54;16.75;86.03
65058;HTU21D;51644;51.068;5.860;2023-08-06T03:00:05;16.74;86.08
65058;HTU21D;51644;51.068;5.860;2023-08-06T03:01:06;16.73;86.10
65058;HTU21D;51644;51.068;5.860;2023-08-06T03:02:14;16.72;86.18
65058;HTU21D;51644;51.068;5.860;2023-08-06T03:03:22;16.73;86.25
65058;HTU21D;51644;51.068;5.860;2023-08-06T03:04:26;16.73;86.25
65058;HTU21D;51644;51.068;5.860;2023-08-06T03:05:25;16.71;86.20
65058;HTU21D;51644;51.068;5.860;2023-08-06T03:06:24;16.69;86.31
65058;HTU21D;51644;51.068;5.860;2023-08-06T03:07:25;16.66;86.49
65058;HTU21D;51644;51.068;5.860;2023-08-06T03:08:28;16.66;86.62
65058;HTU21D;51644;51.068;5.860;2023-08-06T03:09:27;16.65;86.67
65058;HTU21D;51644;51.068;5.860;2023-08-06T03:10:26;16.66;86.75
65058;HTU21D;51644;51.068;5.860;2023-08-06T03:11:26;16.66;86.66
65058;HTU21D;51644;51.068;5.860;2023-08-06T03:12:30;16.65;86.69
65058;HTU21D;51644;51.068;5.860;2023-08-06T03:13:30;16.64;86.79
65058;HTU21D;51644;51.068;5.860;2023-08-06T03:14:29;16.65;86.83
65058;HTU21D;51644;51.068;5.860;2023-08-06T03:15:28;16.64;86.83
65058;HTU21D;51644;51.068;5.860;2023-08-06T03:16:27;16.65;86.81
65058;HTU21D;51644;51.068;5.860;2023-08-06T03:17:26;16.66;86.78
65058;HTU21D;51644;51.068;5.860;2023-08-06T03:18:25;16.64;86.75
65058;HTU21D;51644;51.068;5.860;2023-08-06T03:19:24;16.64;86.77
65058;HTU21D;51644;51.068;5.860;2023-08-06T03:20:26;16.62;86.81
65058;HTU21D;51644;51.068;5.860;2023-08-06T03:21:25;16.65;86.83
65058;HTU21D;51644;51.068;5.860;2023-08-06T03:22:23;16.65;86.86
65058;HTU21D;51644;51.068;5.860;2023-08-06T03:23:24;16.65;86.83
65058;HTU21D;51644;51.068;5.860;2023-08-06T03:24:23;16.63;86.90
65058;HTU21D;51644;51.068;5.860;2023-08-06T03:25:22;16.63;86.89
65058;HTU21D;51644;51.068;5.860;2023-08-06T03:26:22;16.63;87.01
65058;HTU21D;51644;51.068;5.860;2023-08-06T03:27:20;16.65;87.06
65058;HTU21D;51644;51.068;5.860;2023-08-06T03:28:21;16.66;87.02
65058;HTU21D;51644;51.068;5.860;2023-08-06T03:29:20;16.69;86.99
65058;HTU21D;51644;51.068;5.860;2023-08-06T03:30:21;16.69;86.99
65058;HTU21D;51644;51.068;5.860;2023-08-06T03:31:21;16.71;87.01
65058;HTU21D;51644;51.068;5.860;2023-08-06T03:32:20;16.72;87.00
65058;HTU21D;51644;51.068;5.860;2023-08-06T03:33:19;16.71;86.90
65058;HTU21D;51644;51.068;5.860;2023-08-06T03:34:18;16.73;86.84
65058;HTU21D;51644;51.068;5.860;2023-08-06T03:35:17;16.72;86.84
65058;HTU21D;51644;51.068;5.860;2023-08-06T03:36:16;16.71;86.85
65058;HTU21D;51644;51.068;5.860;2023-08-06T03:37:15;16.72;86.86
65058;HTU21D;51644;51.068;5.860;2023-08-06T03:38:14;16.70;86.93
65058;HTU21D;51644;51.068;5.860;2023-08-06T03:39:12;16.65;87.09
65058;HTU21D;51644;51.068;5.860;2023-08-06T03:40:13;16.65;87.14
65058;HTU21D;51644;51.068;5.860;2023-08-06T03:41:11;16.65;87.12
65058;HTU21D;51644;51.068;5.860;2023-08-06T03:42:10;16.63;87.21
65058;HTU21D;51644;51.068;5.860;2023-08-06T03:43:11;16.62;87.35
65058;HTU21D;51644;51.068;5.860;2023-08-06T03:44:10;16.62;87.35
65058;HTU21D;51644;51.068;5.860;2023-08-06T03:45:09;16.62;87.44
65058;HTU21D;51644;51.068;5.860;2023-08-06T03:46:08;16.62;87.45
65058;HTU21D;51644;51.068;5.860;2023-08-06T03:47:07;16.61;87.39
65058;HTU21D;51644;51.068;5.860;2023-08-06T03:48:06;16.58;87.45
65058;HTU21D;51644;51.068;5.860;2023-08-06T03:49:04;16.55;87.58
65058;HTU21D;51644;51.068;5.860;2023-08-06T03:50:03;16.55;87.67
65058;HTU21D;51644;51.068;5.860;2023-08-06T03:51:02;16.52;87.68
65058;HTU21D;51644;51.068;5.860;2023-08-06T03:52:01;16.49;87.83
65058;HTU21D;51644;51.068;5.860;2023-08-06T03:53:00;16.49;87.93
65058;HTU21D;51644;51.068;5.860;2023-08-06T03:54:00;16.50;87.91
65058;HTU21D;51644;51.068;5.860;2023-08-06T03:54:58;16.51;87.93
65058;HTU21D;51644;51.068;5.860;2023-08-06T03:55:57;16.54;87.98
65058;HTU21D;51644;51.068;5.860;2023-08-06T03:56:58;16.58;87.94
65058;HTU21D;51644;51.068;5.860;2023-08-06T03:57:57;16.58;87.81
65058;HTU21D;51644;51.068;5.860;2023-08-06T03:58:56;16.62;87.77
65058;HTU21D;51644;51.068;5.860;2023-08-06T03:59:56;16.64;87.71
65058;HTU21D;51644;51.068;5.860;2023-08-06T04:01:01;16.62;87.73
65058;HTU21D;51644;51.068;5.860;2023-08-06T04:02:05;16.64;87.77
65058;HTU21D;51644;51.068;5.860;2023-08-06T04:03:04;16.65;87.77
65058;HTU21D;51644;51.068;5.860;2023-08-06T04:04:03;16.66;87.72
65058;HTU21D;51644;51.068;5.860;2023-08-06T04:05:01;16.69;87.67
65058;HTU21D;51644;51.068;5.860;2023-08-06T04:06:05;16.70;87.61
65058;HTU21D;51644;51.068;5.860;2023-08-06T04:07:04;16.71;87.51
65058;HTU21D;51644;51.068;5.860;2023-08-06T04:08:03;16.70;87.47
65058;HTU21D;51644;51.068;5.860;2023-08-06T04:09:03;16.70;87.53
65058;HTU21D;51644;51.068;5.860;2023-08-06T04:10:04;16.71;87.60
65058;HTU21D;51644;51.068;5.860;2023-08-06T04:11:03;16.74;87.64
65058;HTU21D;51644;51.068;5.860;2023-08-06T04:12:02;16.75;87.62
65058;HTU21D;51644;51.068;5.860;2023-08-06T04:13:02;16.78;87.51
65058;HTU21D;51644;51.068;5.860;2023-08-06T04:14:05;16.81;87.39
65058;HTU21D;51644;51.068;5.860;2023-08-06T04:15:03;16.81;87.31
65058;HTU21D;51644;51.068;5.860;2023-08-06T04:16:03;16.80;87.30
65058;HTU21D;51644;51.068;5.860;2023-08-06T04:17:02;16.81;87.37
65058;HTU21D;51644;51.068;5.860;2023-08-06T04:18:02;16.86;87.34
65058;HTU21D;51644;51.068;5.860;2023-08-06T04:19:01;16.85;87.28
65058;HTU21D;51644;51.068;5.860;2023-08-06T04:20:00;16.86;87.25
65058;HTU21D;51644;51.068;5.860;2023-08-06T04:21:01;16.87;87.22
65058;HTU21D;51644;51.068;5.860;2023-08-06T04:22:00;16.87;87.22
65058;HTU21D;51644;51.068;5.860;2023-08-06T04:23:06;16.89;87.15
65058;HTU21D;51644;51.068;5.860;2023-08-06T04:24:04;16.92;87.02
65058;HTU21D;51644;51.068;5.860;2023-08-06T04:25:04;16.90;87.03
65058;HTU21D;51644;51.068;5.860;2023-08-06T04:26:03;16.89;86.99
65058;HTU21D;51644;51.068;5.860;2023-08-06T04:27:05;16.87;86.99
65058;HTU21D;51644;51.068;5.860;2023-08-06T04:28:04;16.87;87.02
65058;HTU21D;51644;51.068;5.860;2023-08-06T04:29:05;16.87;87.02
65058;HTU21D;51644;51.068;5.860;2023-08-06T04:30:05;16.90;87.02
65058;HTU21D;51644;51.068;5.860;2023-08-06T04:31:04;16.91;86.98
65058;HTU21D;51644;51.068;5.860;2023-08-06T04:32:07;16.93;86.95
65058;HTU21D;51644;51.068;5.860;2023-08-06T04:33:06;16.94;86.90
65058;HTU21D;51644;51.068;5.860;2023-08-06T04:34:06;16.94;86.83
65058;HTU21D;51644;51.068;5.860;2023-08-06T04:35:13;16.94;86.85
65058;HTU21D;51644;51.068;5.860;2023-08-06T04:36:15;16.95;86.88
65058;HTU21D;51644;51.068;5.860;2023-08-06T04:37:14;16.95;86.92
65058;HTU21D;51644;51.068;5.860;2023-08-06T04:38:12;16.96;86.92
65058;HTU21D;51644;51.068;5.860;2023-08-06T04:39:11;16.99;86.93
65058;HTU21D;51644;51.068;5.860;2023-08-06T04:40:10;16.98;86.96
65058;HTU21D;51644;51.068;5.860;2023-08-06T04:41:08;16.96;86.91
65058;HTU21D;51644;51.068;5.860;2023-08-06T04:42:07;16.96;86.85
65058;HTU21D;51644;51.068;5.860;2023-08-06T04:43:06;16.98;86.83
65058;HTU21D;51644;51.068;5.860;2023-08-06T04:44:06;16.98;86.87
65058;HTU21D;51644;51.068;5.860;2023-08-06T04:45:06;16.96;86.89
65058;HTU21D;51644;51.068;5.860;2023-08-06T04:46:05;16.96;86.96
65058;HTU21D;51644;51.068;5.860;2023-08-06T04:47:04;16.96;86.99
65058;HTU21D;51644;51.068;5.860;2023-08-06T04:48:02;16.99;86.90
65058;HTU21D;51644;51.068;5.860;2023-08-06T04:49:01;16.98;86.93
65058;HTU21D;51644;51.068;5.860;2023-08-06T04:50:00;17.00;86.92
65058;HTU21D;51644;51.068;5.860;2023-08-06T04:50:58;17.00;86.96
65058;HTU21D;51644;51.068;5.860;2023-08-06T04:51:57;16.99;87.03
65058;HTU21D;51644;51.068;5.860;2023-08-06T04:52:55;16.96;87.12
65058;HTU21D;51644;51.068;5.860;2023-08-06T04:53:54;16.96;87.25
65058;HTU21D;51644;51.068;5.860;2023-08-06T04:54:53;16.95;87.31
65058;HTU21D;51644;51.068;5.860;2023-08-06T04:55:52;16.99;87.21
65058;HTU21D;51644;51.068;5.860;2023-08-06T04:56:50;16.99;87.15
65058;HTU21D;51644;51.068;5.860;2023-08-06T04:57:49;17.00;87.14
65058;HTU21D;51644;51.068;5.860;2023-08-06T04:58:47;17.01;87.15
65058;HTU21D;51644;51.068;5.860;2023-08-06T04:59:46;17.02;87.15
65058;HTU21D;51644;51.068;5.860;2023-08-06T05:00:45;17.03;87.06
65058;HTU21D;51644;51.068;5.860;2023-08-06T05:01:43;17.03;86.99
65058;HTU21D;51644;51.068;5.860;2023-08-06T05:02:42;17.05;86.89
65058;HTU21D;51644;51.068;5.860;2023-08-06T05:03:40;17.04;86.83
65058;HTU21D;51644;51.068;5.860;2023-08-06T05:04:39;17.07;86.86
65058;HTU21D;51644;51.068;5.860;2023-08-06T05:05:40;17.06;86.83
65058;HTU21D;51644;51.068;5.860;2023-08-06T05:06:38;17.07;86.83
65058;HTU21D;51644;51.068;5.860;2023-08-06T05:07:37;17.07;86.84
65058;HTU21D;51644;51.068;5.860;2023-08-06T05:08:36;17.07;86.86
65058;HTU21D;51644;51.068;5.860;2023-08-06T05:09:35;17.07;86.88
65058;HTU21D;51644;51.068;5.860;2023-08-06T05:10:33;17.08;86.86
65058;HTU21D;51644;51.068;5.860;2023-08-06T05:11:32;17.08;86.88
65058;HTU21D;51644;51.068;5.860;2023-08-06T05:12:30;17.10;86.91
65058;HTU21D;51644;51.068;5.860;2023-08-06T05:13:29;17.08;86.91
65058;HTU21D;51644;51.068;5.860;2023-08-06T05:14:28;17.10;86.79
65058;HTU21D;51644;51.068;5.860;2023-08-06T05:15:26;17.09;86.77
65058;HTU21D;51644;51.068;5.860;2023-08-06T05:16:25;17.08;86.80
65058;HTU21D;51644;51.068;5.860;2023-08-06T05:17:23;17.07;86.90
65058;HTU21D;51644;51.068;5.860;2023-08-06T05:18:31;17.07;86.95
65058;HTU21D;51644;51.068;5.860;2023-08-06T05:19:30;17.09;86.97
65058;HTU21D;51644;51.068;5.860;2023-08-06T05:20:28;17.09;86.99
65058;HTU21D;51644;51.068;5.860;2023-08-06T05:21:27;17.10;87.06
65058;HTU21D;51644;51.068;5.860;2023-08-06T05:22:26;17.10;87.13
65058;HTU21D;51644;51.068;5.860;2023-08-06T05:23:24;17.14;87.09
65058;HTU21D;51644;51.068;5.860;2023-08-06T05:24:23;17.16;87.06
65058;HTU21D;51644;51.068;5.860;2023-08-06T05:25:24;17.19;87.03
65058;HTU21D;51644;51.068;5.860;2023-08-06T05:26:23;17.21;87.00
65058;HTU21D;51644;51.068;5.860;2023-08-06T05:27:22;17.23;86.99
65058;HTU21D;51644;51.068;5.860;2023-08-06T05:28:21;17.26;86.98
65058;HTU21D;51644;51.068;5.860;2023-08-06T05:29:19;17.28;86.99
65058;HTU21D;51644;51.068;5.860;2023-08-06T05:30:21;17.30;86.99
65058;HTU21D;51644;51.068;5.860;2023-08-06T05:31:19;17.32;86.92
65058;HTU21D;51644;51.068;5.860;2023-08-06T05:32:18;17.34;86.90
65058;HTU21D;51644;51.068;5.860;2023-08-06T05:33:16;17.35;86.82
65058;HTU21D;51644;51.068;5.860;2023-08-06T05:34:15;17.35;86.75
65058;HTU21D;51644;51.068;5.860;2023-08-06T05:35:14;17.36;86.64
65058;HTU21D;51644;51.068;5.860;2023-08-06T05:36:12;17.36;86.54
65058;HTU21D;51644;51.068;5.860;2023-08-06T05:37:14;17.36;86.48
65058;HTU21D;51644;51.068;5.860;2023-08-06T05:38:13;17.37;86.47
65058;HTU21D;51644;51.068;5.860;2023-08-06T05:39:15;17.37;86.44
65058;HTU21D;51644;51.068;5.860;2023-08-06T05:40:14;17.37;86.34
65058;HTU21D;51644;51.068;5.860;2023-08-06T05:41:13;17.39;86.29
65058;HTU21D;51644;51.068;5.860;2023-08-06T05:42:11;17.38;86.23
65058;HTU21D;51644;51.068;5.860;2023-08-06T05:43:10;17.37;86.26
65058;HTU21D;51644;51.068;5.860;2023-08-06T05:44:08;17.35;86.38
65058;HTU21D;51644;51.068;5.860;2023-08-06T05:45:08;17.32;86.55
65058;HTU21D;51644;51.068;5.860;2023-08-06T05:46:07;17.30;86.73
65058;HTU21D;51644;51.068;5.860;2023-08-06T05:47:05;17.25;86.96
65058;HTU21D;51644;51.068;5.860;2023-08-06T05:48:05;17.22;87.14
65058;HTU21D;51644;51.068;5.860;2023-08-06T05:49:04;17.22;87.26
65058;HTU21D;51644;51.068;5.860;2023-08-06T05:50:03;17.23;87.38
65058;HTU21D;51644;51.068;5.860;2023-08-06T05:51:05;17.24;87.44
65058;HTU21D;51644;51.068;5.860;2023-08-06T05:52:06;17.28;87.48
65058;HTU21D;51644;51.068;5.860;2023-08-06T05:53:10;17.31;87.44
65058;HTU21D;51644;51.068;5.860;2023-08-06T05:54:09;17.34;87.36
65058;HTU21D;51644;51.068;5.860;2023-08-06T05:55:08;17.37;87.32
65058;HTU21D;51644;51.068;5.860;2023-08-06T05:56:07;17.41;87.22
65058;HTU21D;51644;51.068;5.860;2023-08-06T05:57:06;17.45;87.12
65058;HTU21D;51644;51.068;5.860;2023-08-06T05:58:05;17.47;87.01
65058;HTU21D;51644;51.068;5.860;2023-08-06T05:59:03;17.52;86.93
65058;HTU21D;51644;51.068;5.860;2023-08-06T06:00:02;17.54;86.81
65058;HTU21D;51644;51.068;5.860;2023-08-06T06:01:14;17.58;86.73
65058;HTU21D;51644;51.068;5.860;2023-08-06T06:02:18;17.62;86.62
65058;HTU21D;51644;51.068;5.860;2023-08-06T06:03:17;17.64;86.51
65058;HTU21D;51644;51.068;5.860;2023-08-06T06:04:16;17.64;86.53
65058;HTU21D;51644;51.068;5.860;2023-08-06T06:05:14;17.64;86.57
65058;HTU21D;51644;51.068;5.860;2023-08-06T06:06:13;17.65;86.61
65058;HTU21D;51644;51.068;5.860;2023-08-06T06:07:12;17.66;86.64
65058;HTU21D;51644;51.068;5.860;2023-08-06T06:08:13;17.67;86.67
65058;HTU21D;51644;51.068;5.860;2023-08-06T06:09:12;17.68;86.67
65058;HTU21D;51644;51.068;5.860;2023-08-06T06:10:11;17.70;86.68
65058;HTU21D;51644;51.068;5.860;2023-08-06T06:11:09;17.72;86.63
65058;HTU21D;51644;51.068;5.860;2023-08-06T06:12:08;17.74;86.61
65058;HTU21D;51644;51.068;5.860;2023-08-06T06:13:07;17.75;86.56
65058;HTU21D;51644;51.068;5.860;2023-08-06T06:14:05;17.76;86.51
65058;HTU21D;51644;51.068;5.860;2023-08-06T06:15:04;17.76;86.48
65058;HTU21D;51644;51.068;5.860;2023-08-06T06:16:03;17.75;86.42